Time;durP1;ratioP1;P1;durP2;ratioP2;P2;SDS_P1;SDS_P2;PMS_P1;PMS_P2;Temp;Humidity;BMP_temperature;BMP_pressure;BME280_temperature;BME280_humidity;BME280_pressure;Samples;Min_cycle;Max_cycle;Signal;HPM_P1;HPM_P2
2021/10/02 00:35:29;;;;;;;8.67;3.90;;;;;;;;;;5047580;28;20576;-74
2021/10/02 00:38:11;;;;;;;10.13;4.07;;;;;;;;;;5052832;28;20206;-74
2021/10/02 00:46:09;;;;;;;8.73;3.80;;;;;;;;;;5047298;28;20278;-74
2021/10/02 00:48:37;;;;;;;13.00;4.10;;;;;;;;;;5045736;28;20727;-75
2021/10/02 00:51:04;;;;;;;7.07;3.77;;;;;;;;;;5049166;28;20230;-75
2021/10/02 00:53:33;;;;;;;8.17;3.67;;;;;;;;;;5045129;28;20199;-75
2021/10/02 00:56:00;;;;;;;7.97;3.83;;;;;;;;;;5046583;28;20688;-75
2021/10/02 00:58:30;;;;;;;7.87;3.57;;;;;;;;;;5038902;28;20203;-75
2021/10/02 01:00:59;;;;;;;12.70;3.57;;;;;;;;;;5033007;28;20319;-75
2021/10/02 01:03:39;;;;;;;8.63;4.20;;;;;;;;;;5032640;28;20203;-75
2021/10/02 01:06:11;;;;;;;7.27;3.60;;;;;;;;;;5036574;28;20198;-75
2021/10/02 01:08:44;;;;;;;5.87;3.60;;;;;;;;;;5035135;28;20406;-75
2021/10/02 01:11:20;;;;;;;6.30;3.90;;;;;;;;;;5030967;28;20227;-75
2021/10/02 01:13:50;;;;;;;10.30;4.27;;;;;;;;;;5031661;28;20782;-75
2021/10/02 01:16:21;;;;;;;9.57;4.13;;;;;;;;;;5033586;28;20208;-75
2021/10/02 01:18:53;;;;;;;9.30;3.73;;;;;;;;;;5032447;28;20338;-75
2021/10/02 01:21:34;;;;;;;7.03;4.00;;;;;;;;;;5030289;28;20202;-75
2021/10/02 01:24:10;;;;;;;8.90;4.20;;;;;;;;;;5033243;28;20837;-75
2021/10/02 01:26:52;;;;;;;7.17;4.33;;;;;;;;;;5032707;28;20236;-75
2021/10/02 01:29:21;;;;;;;11.17;4.33;;;;;;;;;;5033648;28;20912;-75
2021/10/02 01:31:55;;;;;;;7.13;3.67;;;;;;;;;;5033306;28;20567;-75
2021/10/02 01:34:27;;;;;;;8.97;3.90;;;;;;;;;;5032126;28;20210;-75
2021/10/02 01:37:01;;;;;;;9.83;4.23;;;;;;;;;;5036031;28;20543;-74
2021/10/02 01:48:07;;;;;;;7.40;3.90;;;;;;;;;;5031999;28;20810;-75
2021/10/02 01:50:37;;;;;;;5.70;3.40;;;;;;;;;;5032675;28;20843;-75
2021/10/02 01:53:06;;;;;;;6.77;3.67;;;;;;;;;;5032522;28;20733;-75
2021/10/02 01:55:33;;;;;;;7.27;3.80;;;;;;;;;;5035511;28;20204;-75
2021/10/02 01:58:02;;;;;;;8.77;3.73;;;;;;;;;;5032629;28;20205;-75
2021/10/02 02:00:32;;;;;;;10.13;4.00;;;;;;;;;;5033847;28;20266;-75
2021/10/02 02:03:02;;;;;;;6.47;3.53;;;;;;;;;;5033099;28;20207;-75
2021/10/02 02:05:30;;;;;;;8.53;3.83;;;;;;;;;;5035371;28;20207;-75
2021/10/02 02:08:00;;;;;;;5.93;3.63;;;;;;;;;;5033119;28;20318;-75
2021/10/02 02:10:28;;;;;;;6.10;3.40;;;;;;;;;;5030112;28;20281;-75
2021/10/02 02:12:56;;;;;;;6.80;3.30;;;;;;;;;;5029917;28;20207;-75
2021/10/02 02:15:25;;;;;;;10.57;3.77;;;;;;;;;;5028283;22;20422;-75
2021/10/02 02:17:55;;;;;;;9.77;4.00;;;;;;;;;;5010109;28;20212;-75
2021/10/02 02:20:24;;;;;;;10.63;3.80;;;;;;;;;;5007388;28;20227;-75
2021/10/02 02:22:51;;;;;;;9.57;4.20;;;;;;;;;;5006694;28;20572;-74
2021/10/02 02:25:19;;;;;;;6.10;3.47;;;;;;;;;;5004694;28;20210;-75
2021/10/02 02:27:46;;;;;;;7.17;4.00;;;;;;;;;;5007780;28;20223;-75
2021/10/02 02:30:14;;;;;;;7.33;3.83;;;;;;;;;;5007929;28;20223;-75
2021/10/02 02:32:42;;;;;;;9.93;4.00;;;;;;;;;;5007594;28;20210;-75
2021/10/02 02:35:11;;;;;;;7.53;3.87;;;;;;;;;;5008494;28;20230;-75
2021/10/02 02:37:38;;;;;;;5.93;3.57;;;;;;;;;;5009044;28;20196;-75
2021/10/02 02:40:06;;;;;;;8.20;3.90;;;;;;;;;;5005158;28;20237;-75
2021/10/02 02:42:33;;;;;;;7.27;3.93;;;;;;;;;;5005512;28;20208;-75
2021/10/02 02:45:00;;;;;;;6.57;3.77;;;;;;;;;;5008536;28;20195;-75
2021/10/02 02:47:30;;;;;;;8.00;3.70;;;;;;;;;;5008128;28;20224;-75
2021/10/02 02:50:01;;;;;;;6.93;3.93;;;;;;;;;;5009260;28;20223;-75
2021/10/02 02:52:33;;;;;;;9.10;3.93;;;;;;;;;;5008764;28;20303;-75
2021/10/02 02:55:03;;;;;;;10.50;4.27;;;;;;;;;;5009388;28;20335;-75
2021/10/02 02:57:34;;;;;;;9.87;4.03;;;;;;;;;;5008541;28;20203;-75
2021/10/02 03:00:04;;;;;;;6.57;3.97;;;;;;;;;;5009232;28;20219;-75
2021/10/02 03:02:32;;;;;;;7.40;4.13;;;;;;;;;;5008507;28;20204;-75
2021/10/02 03:05:00;;;;;;;6.97;4.00;;;;;;;;;;5008774;28;20203;-75
2021/10/02 03:07:28;;;;;;;10.33;4.00;;;;;;;;;;5006996;28;20792;-75
2021/10/02 03:09:57;;;;;;;10.80;4.40;;;;;;;;;;5010181;28;21136;-75
2021/10/02 03:12:29;;;;;;;7.00;3.77;;;;;;;;;;5008986;28;20225;-75
2021/10/02 03:14:58;;;;;;;10.50;4.17;;;;;;;;;;5008295;28;20256;-75
2021/10/02 03:17:25;;;;;;;7.67;4.87;;;;;;;;;;5009459;28;20617;-75
2021/10/02 03:19:53;;;;;;;9.47;3.83;;;;;;;;;;5008570;28;20605;-75
2021/10/02 03:22:21;;;;;;;8.93;4.20;;;;;;;;;;5006618;28;20893;-75
2021/10/02 03:24:49;;;;;;;12.37;4.10;;;;;;;;;;5010094;28;20200;-75
2021/10/02 03:27:17;;;;;;;9.13;4.13;;;;;;;;;;5007817;28;20228;-75
2021/10/02 03:29:45;;;;;;;8.53;3.87;;;;;;;;;;5009330;28;20318;-76
2021/10/02 03:32:13;;;;;;;9.57;3.93;;;;;;;;;;5008520;28;20670;-76
2021/10/02 03:34:40;;;;;;;10.67;4.30;;;;;;;;;;5007400;28;20326;-76
2021/10/02 03:37:07;;;;;;;8.60;4.10;;;;;;;;;;5006642;28;20214;-76
2021/10/02 03:39:35;;;;;;;8.23;4.10;;;;;;;;;;5006088;28;20220;-76
2021/10/02 03:42:13;;;;;;;5.93;3.53;;;;;;;;;;5009156;28;20203;-76
2021/10/02 03:44:43;;;;;;;9.23;3.67;;;;;;;;;;5007362;28;20552;-76
2021/10/02 03:47:10;;;;;;;13.90;4.07;;;;;;;;;;5007765;28;20203;-76
2021/10/02 03:49:38;;;;;;;8.27;3.70;;;;;;;;;;5006821;28;20224;-75
2021/10/02 03:52:06;;;;;;;8.33;3.97;;;;;;;;;;5006514;28;20211;-76
2021/10/02 03:54:33;;;;;;;11.30;3.57;;;;;;;;;;5004410;28;20215;-76
2021/10/02 03:57:01;;;;;;;8.23;3.90;;;;;;;;;;5003945;28;20303;-76
2021/10/02 03:59:28;;;;;;;8.13;3.37;;;;;;;;;;5004178;28;20227;-76
2021/10/02 04:01:56;;;;;;;8.17;3.50;;;;;;;;;;5001960;28;20243;-76
2021/10/02 04:04:23;;;;;;;9.03;3.50;;;;;;;;;;5004799;28;20212;-76
2021/10/02 04:06:51;;;;;;;13.93;4.23;;;;;;;;;;5005368;28;20215;-76
2021/10/02 04:09:18;;;;;;;7.60;3.70;;;;;;;;;;5004205;28;20223;-76
2021/10/02 04:11:46;;;;;;;7.40;3.40;;;;;;;;;;5003028;28;20200;-76
2021/10/02 04:14:14;;;;;;;9.30;3.40;;;;;;;;;;5004171;28;20208;-76
2021/10/02 04:16:41;;;;;;;11.07;3.40;;;;;;;;;;5004221;28;20298;-76
2021/10/02 04:19:10;;;;;;;10.07;4.10;;;;;;;;;;5009758;28;20204;-76
2021/10/02 04:21:37;;;;;;;9.60;3.90;;;;;;;;;;5014418;28;20302;-76
2021/10/02 04:24:04;;;;;;;8.90;3.47;;;;;;;;;;5016139;28;20258;-76
2021/10/02 04:26:31;;;;;;;5.17;3.33;;;;;;;;;;5003813;28;20212;-76
2021/10/02 04:28:59;;;;;;;9.73;3.20;;;;;;;;;;5004584;28;20591;-76
2021/10/02 04:31:26;;;;;;;5.70;3.80;;;;;;;;;;5005739;28;20269;-76
2021/10/02 04:33:53;;;;;;;6.90;3.33;;;;;;;;;;5008549;28;20210;-76
2021/10/02 04:36:22;;;;;;;9.07;3.47;;;;;;;;;;5009995;28;20707;-76
2021/10/02 04:38:49;;;;;;;9.03;3.70;;;;;;;;;;5014941;28;20284;-75
2021/10/02 04:41:16;;;;;;;8.67;3.33;;;;;;;;;;5014113;28;20234;-76
2021/10/02 04:43:44;;;;;;;9.60;4.00;;;;;;;;;;5011979;28;20727;-76
2021/10/02 04:46:12;;;;;;;5.73;3.63;;;;;;;;;;5005882;28;20212;-76
2021/10/02 04:48:39;;;;;;;8.80;3.60;;;;;;;;;;5008435;28;20242;-76
2021/10/02 04:51:07;;;;;;;9.07;4.20;;;;;;;;;;5008809;28;20796;-76
2021/10/02 04:53:36;;;;;;;10.97;3.90;;;;;;;;;;5007857;28;20594;-76
2021/10/02 04:56:05;;;;;;;6.23;3.53;;;;;;;;;;5007931;28;20335;-76
2021/10/02 04:58:33;;;;;;;10.57;3.83;;;;;;;;;;5008249;28;20200;-76
2021/10/02 05:01:02;;;;;;;10.07;3.90;;;;;;;;;;5009938;28;20233;-75
2021/10/02 05:03:29;;;;;;;9.23;3.47;;;;;;;;;;5007034;28;20546;-76
2021/10/02 05:05:57;;;;;;;7.43;3.37;;;;;;;;;;5008269;28;20354;-76
2021/10/02 05:08:24;;;;;;;10.77;3.50;;;;;;;;;;5008083;28;20759;-76
2021/10/02 05:10:52;;;;;;;9.30;3.20;;;;;;;;;;5004812;28;20760;-76
2021/10/02 05:13:19;;;;;;;8.03;3.40;;;;;;;;;;5008804;28;20200;-76
2021/10/02 05:15:47;;;;;;;8.63;3.50;;;;;;;;;;5005865;28;20219;-75
2021/10/02 05:18:14;;;;;;;9.90;3.50;;;;;;;;;;5007282;28;20686;-75
2021/10/02 05:20:42;;;;;;;8.00;3.87;;;;;;;;;;5005737;28;20240;-76
2021/10/02 05:23:09;;;;;;;6.57;3.67;;;;;;;;;;5004908;28;20210;-76
2021/10/02 05:25:36;;;;;;;7.67;3.80;;;;;;;;;;5004065;28;20210;-75
2021/10/02 05:28:05;;;;;;;8.20;3.40;;;;;;;;;;5008124;28;20227;-76
2021/10/02 05:30:33;;;;;;;10.57;3.70;;;;;;;;;;5010584;28;20310;-76
2021/10/02 05:33:03;;;;;;;9.13;3.60;;;;;;;;;;5010574;28;20283;-75
2021/10/02 05:35:30;;;;;;;7.67;3.80;;;;;;;;;;5009606;28;20231;-75
2021/10/02 05:37:57;;;;;;;10.47;3.90;;;;;;;;;;5007575;28;20332;-75
2021/10/02 05:40:24;;;;;;;10.53;4.27;;;;;;;;;;5009038;28;20322;-75
2021/10/02 05:42:52;;;;;;;8.10;3.43;;;;;;;;;;5004872;28;22360;-75
2021/10/02 05:45:20;;;;;;;7.00;3.03;;;;;;;;;;5005485;28;20622;-75
2021/10/02 05:47:48;;;;;;;6.13;2.83;;;;;;;;;;5007706;28;20663;-75
2021/10/02 05:50:15;;;;;;;10.40;3.50;;;;;;;;;;5004995;28;20370;-76
2021/10/02 05:52:42;;;;;;;9.53;3.70;;;;;;;;;;5002937;28;20206;-75
2021/10/02 05:55:10;;;;;;;8.23;3.47;;;;;;;;;;5003477;28;20693;-75
2021/10/02 05:57:37;;;;;;;9.37;3.60;;;;;;;;;;5002813;28;20207;-75
2021/10/02 06:00:05;;;;;;;5.47;3.67;;;;;;;;;;5003641;28;20223;-75
2021/10/02 06:02:33;;;;;;;9.47;3.73;;;;;;;;;;5003070;28;20314;-75
2021/10/02 06:05:01;;;;;;;8.33;3.97;;;;;;;;;;5001465;28;20236;-75
2021/10/02 06:07:28;;;;;;;8.33;3.20;;;;;;;;;;5002884;28;20307;-75
2021/10/02 06:09:55;;;;;;;9.20;3.67;;;;;;;;;;5006722;28;20236;-75
2021/10/02 06:12:22;;;;;;;13.00;3.97;;;;;;;;;;5002603;28;20330;-75
2021/10/02 06:14:49;;;;;;;14.83;4.87;;;;;;;;;;5004102;28;20677;-75
2021/10/02 06:17:17;;;;;;;10.27;4.03;;;;;;;;;;4999100;28;20208;-75
2021/10/02 06:19:45;;;;;;;13.20;4.87;;;;;;;;;;5000124;28;20234;-74
2021/10/02 06:22:12;;;;;;;10.83;4.67;;;;;;;;;;5001280;28;20212;-74
2021/10/02 06:24:39;;;;;;;7.00;4.00;;;;;;;;;;5001435;28;20204;-75
2021/10/02 06:27:07;;;;;;;10.37;3.60;;;;;;;;;;5000316;28;20214;-74
2021/10/02 06:29:35;;;;;;;8.80;3.70;;;;;;;;;;5000911;28;20227;-74
2021/10/02 06:32:02;;;;;;;8.77;3.63;;;;;;;;;;5003041;28;20641;-75
2021/10/02 06:34:29;;;;;;;9.13;4.50;;;;;;;;;;5014188;28;20232;-75
2021/10/02 06:36:58;;;;;;;7.60;3.40;;;;;;;;;;5014440;28;20637;-76
2021/10/02 06:39:25;;;;;;;5.53;3.37;;;;;;;;;;5014372;28;20310;-75
2021/10/02 06:41:52;;;;;;;5.73;3.20;;;;;;;;;;5013376;28;20672;-75
2021/10/02 06:44:19;;;;;;;5.20;3.20;;;;;;;;;;5013504;28;20314;-75
2021/10/02 06:46:47;;;;;;;5.03;2.97;;;;;;;;;;5013576;28;20287;-76
2021/10/02 06:49:14;;;;;;;8.37;3.10;;;;;;;;;;5013230;28;20757;-75
2021/10/02 06:51:41;;;;;;;10.13;3.40;;;;;;;;;;5011831;28;20575;-75
2021/10/02 06:54:10;;;;;;;8.37;3.40;;;;;;;;;;5016585;28;20274;-75
2021/10/02 06:56:39;;;;;;;7.03;2.87;;;;;;;;;;5013092;28;20208;-75
2021/10/02 06:59:06;;;;;;;8.30;3.33;;;;;;;;;;5016815;28;20287;-75
2021/10/02 07:01:33;;;;;;;9.07;3.20;;;;;;;;;;5013429;28;20215;-75
2021/10/02 07:04:00;;;;;;;9.97;3.50;;;;;;;;;;5013242;28;20299;-75
2021/10/02 07:06:27;;;;;;;6.10;3.30;;;;;;;;;;5014131;28;20291;-75
2021/10/02 07:08:54;;;;;;;6.47;2.83;;;;;;;;;;5014295;28;20311;-77
2021/10/02 07:11:23;;;;;;;8.40;2.87;;;;;;;;;;5013545;28;20279;-76
2021/10/02 07:13:50;;;;;;;6.73;2.93;;;;;;;;;;5015968;28;21596;-76
2021/10/02 07:16:18;;;;;;;5.20;2.90;;;;;;;;;;5015021;28;20218;-77
2021/10/02 07:18:45;;;;;;;4.53;2.77;;;;;;;;;;5013692;28;20197;-76
2021/10/02 07:21:12;;;;;;;11.03;2.97;;;;;;;;;;5016040;28;20228;-76
2021/10/02 07:23:39;;;;;;;6.87;2.80;;;;;;;;;;5012562;28;20283;-76
2021/10/02 07:26:07;;;;;;;6.40;2.73;;;;;;;;;;5010560;28;20398;-76
2021/10/02 07:28:36;;;;;;;8.70;2.77;;;;;;;;;;5009776;28;20530;-75
2021/10/02 07:31:03;;;;;;;7.87;3.10;;;;;;;;;;5012143;28;20255;-75
2021/10/02 07:33:30;;;;;;;5.93;2.90;;;;;;;;;;5012172;28;20960;-74
2021/10/02 07:35:57;;;;;;;7.40;2.80;;;;;;;;;;5015075;28;20258;-75
2021/10/02 07:38:25;;;;;;;8.70;2.93;;;;;;;;;;5014176;28;20299;-77
2021/10/02 07:40:52;;;;;;;4.97;2.20;;;;;;;;;;5012879;28;20310;-77
2021/10/02 07:43:21;;;;;;;5.57;2.57;;;;;;;;;;5015728;28;20196;-75
2021/10/02 07:45:50;;;;;;;7.77;2.63;;;;;;;;;;5017498;28;20216;-75
2021/10/02 07:48:19;;;;;;;7.53;2.57;;;;;;;;;;5014692;28;20204;-77
2021/10/02 07:50:47;;;;;;;6.30;2.93;;;;;;;;;;5014393;28;20235;-76
2021/10/02 07:53:14;;;;;;;6.73;2.70;;;;;;;;;;5014488;28;20763;-76
2021/10/02 07:55:45;;;;;;;8.83;3.40;;;;;;;;;;5012190;28;20815;-76
2021/10/02 07:58:12;;;;;;;7.40;3.07;;;;;;;;;;5012254;28;20200;-76
2021/10/02 08:00:39;;;;;;;8.73;3.00;;;;;;;;;;5010755;28;20312;-76
2021/10/02 08:03:08;;;;;;;7.30;2.87;;;;;;;;;;5012650;28;20294;-76
2021/10/02 08:05:35;;;;;;;6.73;2.90;;;;;;;;;;5016533;28;20230;-77
2021/10/02 08:08:03;;;;;;;6.73;3.30;;;;;;;;;;5014355;28;20292;-76
2021/10/02 08:10:30;;;;;;;8.53;3.47;;;;;;;;;;5018184;28;20609;-76
2021/10/02 08:12:57;;;;;;;6.67;3.33;;;;;;;;;;5020922;28;20195;-76
2021/10/02 08:17:55;;;;;;;5.77;3.03;;;;;;;;;;5017016;28;20338;-74
2021/10/02 08:20:24;;;;;;;8.17;2.93;;;;;;;;;;5019546;28;20309;-76
2021/10/02 08:22:52;;;;;;;5.80;3.00;;;;;;;;;;5018818;28;20306;-74
2021/10/02 08:25:20;;;;;;;9.07;3.40;;;;;;;;;;5019235;28;20204;-75
2021/10/02 08:27:48;;;;;;;6.63;3.07;;;;;;;;;;5018396;28;20291;-75
2021/10/02 08:30:15;;;;;;;5.03;3.13;;;;;;;;;;5020274;28;20243;-74
2021/10/02 08:32:43;;;;;;;7.03;3.50;;;;;;;;;;5019060;28;20606;-74
2021/10/02 08:35:11;;;;;;;10.13;3.67;;;;;;;;;;5017794;28;20207;-77
2021/10/02 08:37:40;;;;;;;9.43;3.73;;;;;;;;;;5018642;28;20203;-75
2021/10/02 08:40:09;;;;;;;9.53;3.70;;;;;;;;;;5017011;28;20322;-74
2021/10/02 08:42:38;;;;;;;10.90;4.10;;;;;;;;;;5019357;28;20287;-75
2021/10/02 08:45:06;;;;;;;11.70;3.93;;;;;;;;;;5017247;28;20215;-74
2021/10/02 08:47:37;;;;;;;7.43;3.80;;;;;;;;;;5017123;28;20283;-74
2021/10/02 08:50:05;;;;;;;9.67;4.47;;;;;;;;;;5014064;28;20289;-75
2021/10/02 08:52:32;;;;;;;7.57;3.50;;;;;;;;;;5017021;28;20287;-75
2021/10/02 08:55:02;;;;;;;7.87;3.10;;;;;;;;;;5018794;28;20296;-75
2021/10/02 08:57:31;;;;;;;7.83;3.23;;;;;;;;;;5016419;28;20298;-74
2021/10/02 08:59:58;;;;;;;7.57;3.57;;;;;;;;;;5018977;28;20698;-75
2021/10/02 09:02:26;;;;;;;8.77;3.57;;;;;;;;;;5016802;28;20236;-75
2021/10/02 09:04:54;;;;;;;10.33;3.70;;;;;;;;;;5016724;28;20211;-75
2021/10/02 09:07:23;;;;;;;9.00;3.67;;;;;;;;;;5019931;28;20307;-74
2021/10/02 09:09:52;;;;;;;7.33;3.43;;;;;;;;;;5018962;28;20228;-74
2021/10/02 09:12:21;;;;;;;5.63;3.03;;;;;;;;;;5017674;28;20226;-74
2021/10/02 09:14:50;;;;;;;8.53;3.20;;;;;;;;;;5016431;28;20227;-74
2021/10/02 09:17:17;;;;;;;5.23;2.83;;;;;;;;;;5020390;28;20215;-74
2021/10/02 09:19:44;;;;;;;6.63;2.33;;;;;;;;;;5018148;28;20216;-74
2021/10/02 09:22:12;;;;;;;8.17;2.60;;;;;;;;;;5019760;28;20216;-74
2021/10/02 09:24:42;;;;;;;3.63;2.03;;;;;;;;;;5019617;28;20226;-75
2021/10/02 09:27:14;;;;;;;6.63;2.37;;;;;;;;;;5015846;28;20667;-75
2021/10/02 09:29:44;;;;;;;3.43;1.87;;;;;;;;;;5015268;28;20659;-75
2021/10/02 09:32:12;;;;;;;4.70;1.70;;;;;;;;;;5017981;28;20283;-75
2021/10/02 09:34:47;;;;;;;2.97;1.50;;;;;;;;;;5016510;28;20283;-75
2021/10/02 09:37:22;;;;;;;2.33;1.10;;;;;;;;;;5017266;28;20254;-74
2021/10/02 09:39:50;;;;;;;1.70;1.07;;;;;;;;;;5020665;28;20793;-75
2021/10/02 09:42:22;;;;;;;2.60;1.20;;;;;;;;;;5016768;28;20208;-75
2021/10/02 09:44:50;;;;;;;3.60;1.20;;;;;;;;;;5018552;28;20291;-75
2021/10/02 09:47:18;;;;;;;1.70;1.00;;;;;;;;;;5018334;28;20315;-74
2021/10/02 09:49:46;;;;;;;5.03;1.20;;;;;;;;;;5019073;28;20311;-75
2021/10/02 09:52:36;;;;;;;2.10;1.10;;;;;;;;;;5017922;28;20698;-75
2021/10/02 09:55:16;;;;;;;3.33;1.00;;;;;;;;;;5016921;28;20212;-75
2021/10/02 09:57:44;;;;;;;4.93;1.40;;;;;;;;;;5015143;28;20218;-74
2021/10/02 10:00:14;;;;;;;2.87;1.13;;;;;;;;;;5014619;28;20219;-75
2021/10/02 10:02:42;;;;;;;2.67;1.07;;;;;;;;;;5015476;28;20655;-74
2021/10/02 10:05:10;;;;;;;1.90;1.07;;;;;;;;;;5019522;28;20211;-75
2021/10/02 10:07:38;;;;;;;1.57;1.20;;;;;;;;;;5019307;28;20303;-75
2021/10/02 10:10:11;;;;;;;5.33;1.23;;;;;;;;;;5018844;28;20359;-74
2021/10/02 10:12:39;;;;;;;2.43;1.10;;;;;;;;;;5016448;28;20295;-75
2021/10/02 10:15:08;;;;;;;2.63;1.40;;;;;;;;;;5016030;28;20370;-75
2021/10/02 10:17:36;;;;;;;5.53;1.53;;;;;;;;;;5017864;28;20211;-75
2021/10/02 10:20:07;;;;;;;4.17;1.93;;;;;;;;;;5013465;28;20822;-75
2021/10/02 10:22:34;;;;;;;2.97;1.60;;;;;;;;;;5012959;28;20211;-76
2021/10/02 10:25:02;;;;;;;4.30;1.23;;;;;;;;;;5012214;28;20205;-76
2021/10/02 10:27:30;;;;;;;2.83;1.30;;;;;;;;;;5011719;28;20318;-75
2021/10/02 10:30:05;;;;;;;3.90;1.50;;;;;;;;;;5009054;28;20226;-75
2021/10/02 10:32:33;;;;;;;3.20;1.30;;;;;;;;;;5016883;28;20215;-76
2021/10/02 10:35:02;;;;;;;5.23;1.50;;;;;;;;;;5014140;28;20478;-77
2021/10/02 10:37:29;;;;;;;2.40;1.20;;;;;;;;;;5013359;28;20755;-77
2021/10/02 10:39:58;;;;;;;2.53;1.37;;;;;;;;;;5009113;28;20274;-76
2021/10/02 10:42:27;;;;;;;3.60;1.70;;;;;;;;;;5007627;28;20212;-76
2021/10/02 10:44:56;;;;;;;3.53;1.80;;;;;;;;;;5012701;28;20238;-76
2021/10/02 10:47:23;;;;;;;2.97;1.57;;;;;;;;;;5011442;28;20681;-76
2021/10/02 10:49:50;;;;;;;3.67;1.43;;;;;;;;;;5010739;28;20322;-75
2021/10/02 10:52:20;;;;;;;7.57;1.83;;;;;;;;;;5005299;28;20211;-76
2021/10/02 10:54:50;;;;;;;4.30;1.60;;;;;;;;;;5015033;28;20678;-76
2021/10/02 10:57:35;;;;;;;3.87;1.53;;;;;;;;;;5013200;28;20210;-76
2021/10/02 11:00:03;;;;;;;3.47;1.73;;;;;;;;;;5011083;28;21442;-77
2021/10/02 11:02:42;;;;;;;3.50;1.50;;;;;;;;;;5010555;28;20204;-77
2021/10/02 11:05:36;;;;;;;5.10;1.70;;;;;;;;;;5008143;28;20207;-75
2021/10/02 11:08:05;;;;;;;2.97;1.30;;;;;;;;;;5003552;28;20351;-76
2021/10/02 11:10:45;;;;;;;5.70;1.60;;;;;;;;;;5004143;28;21147;-77
2021/10/02 11:13:13;;;;;;;5.50;1.60;;;;;;;;;;5003982;28;20313;-77
2021/10/02 11:15:40;;;;;;;5.20;1.70;;;;;;;;;;5006166;28;20287;-77
2021/10/02 11:18:28;;;;;;;3.63;1.43;;;;;;;;;;5005961;28;20666;-76
2021/10/02 11:21:03;;;;;;;6.87;1.30;;;;;;;;;;5006024;28;20219;-76
2021/10/02 11:23:51;;;;;;;3.20;1.20;;;;;;;;;;5009937;28;20207;-76
2021/10/02 11:26:21;;;;;;;5.57;1.40;;;;;;;;;;5005799;28;20248;-75
2021/10/02 11:28:49;;;;;;;2.50;1.30;;;;;;;;;;5008998;28;20231;-76
2021/10/02 11:31:18;;;;;;;4.03;1.50;;;;;;;;;;5008004;28;20262;-76
2021/10/02 11:33:46;;;;;;;4.33;1.37;;;;;;;;;;5006738;28;20737;-76
2021/10/02 11:36:31;;;;;;;6.67;1.33;;;;;;;;;;5009770;28;20346;-75
2021/10/02 11:39:12;;;;;;;2.40;1.30;;;;;;;;;;5008761;28;20728;-76
2021/10/02 11:41:39;;;;;;;2.20;1.27;;;;;;;;;;5005728;28;20191;-75
2021/10/02 11:44:07;;;;;;;2.27;1.33;;;;;;;;;;5007211;28;21245;-75
2021/10/02 11:46:34;;;;;;;4.33;1.13;;;;;;;;;;5012871;28;20203;-76
2021/10/02 11:49:14;;;;;;;4.17;1.13;;;;;;;;;;5014526;28;20557;-75
2021/10/02 11:51:41;;;;;;;2.00;1.10;;;;;;;;;;5016466;28;20326;-75
2021/10/02 11:54:28;;;;;;;3.10;1.20;;;;;;;;;;5014459;28;20663;-75
2021/10/02 11:57:08;;;;;;;3.10;1.10;;;;;;;;;;5019427;28;20692;-75
2021/10/02 11:59:35;;;;;;;12.97;1.57;;;;;;;;;;5015850;28;20266;-75
2021/10/02 12:02:04;;;;;;;2.67;0.93;;;;;;;;;;5025448;28;20259;-75
2021/10/02 12:04:31;;;;;;;2.13;1.00;;;;;;;;;;5021335;28;20602;-75
2021/10/02 12:06:58;;;;;;;2.80;1.40;;;;;;;;;;5027780;28;20227;-75
2021/10/02 12:09:29;;;;;;;2.10;1.00;;;;;;;;;;5021456;28;20263;-75
2021/10/02 12:11:57;;;;;;;2.73;1.23;;;;;;;;;;5013824;28;20219;-75
2021/10/02 12:14:26;;;;;;;6.00;1.20;;;;;;;;;;5015887;28;20394;-76
2021/10/02 12:16:54;;;;;;;4.67;1.43;;;;;;;;;;5015203;28;20633;-75
2021/10/02 12:19:21;;;;;;;2.33;1.13;;;;;;;;;;5014672;28;20232;-75
2021/10/02 12:21:49;;;;;;;1.90;1.20;;;;;;;;;;5015036;28;20291;-75
2021/10/02 12:24:18;;;;;;;1.97;1.00;;;;;;;;;;5014563;28;20286;-75
2021/10/02 12:26:47;;;;;;;4.10;1.10;;;;;;;;;;5012659;28;20697;-75
2021/10/02 12:29:17;;;;;;;3.33;1.40;;;;;;;;;;5016803;28;20781;-76
2021/10/02 12:31:58;;;;;;;3.03;1.63;;;;;;;;;;5014759;28;20577;-75
2021/10/02 12:34:26;;;;;;;3.47;0.90;;;;;;;;;;5014767;28;20250;-76
2021/10/02 12:36:56;;;;;;;3.10;1.00;;;;;;;;;;5017287;28;20303;-75
2021/10/02 12:39:26;;;;;;;2.07;0.97;;;;;;;;;;5013140;28;20647;-75
2021/10/02 12:41:53;;;;;;;3.53;0.97;;;;;;;;;;5014374;28;20290;-75
2021/10/02 12:44:23;;;;;;;1.70;0.97;;;;;;;;;;5013450;28;20283;-76
2021/10/02 12:46:50;;;;;;;3.07;1.07;;;;;;;;;;5010331;28;20298;-75
2021/10/02 12:49:18;;;;;;;1.70;1.13;;;;;;;;;;5013894;28;20799;-75
2021/10/02 12:51:46;;;;;;;2.10;0.90;;;;;;;;;;5013303;28;20362;-75
2021/10/02 12:54:15;;;;;;;1.23;0.60;;;;;;;;;;5015271;28;20218;-76
2021/10/02 12:57:13;;;;;;;3.23;0.90;;;;;;;;;;5014936;28;20294;-75
2021/10/02 12:59:46;;;;;;;1.87;1.00;;;;;;;;;;4967335;28;20849;-75
2021/10/02 13:02:13;;;;;;;5.20;1.07;;;;;;;;;;5008113;28;20295;-77
2021/10/02 13:04:41;;;;;;;4.77;0.80;;;;;;;;;;5017645;28;20295;-77
2021/10/02 13:07:08;;;;;;;2.23;1.03;;;;;;;;;;5015782;28;20687;-77
2021/10/02 13:09:54;;;;;;;3.23;0.97;;;;;;;;;;5019839;28;20339;-77
2021/10/02 13:12:25;;;;;;;2.10;0.90;;;;;;;;;;5018460;28;20667;-76
2021/10/02 13:14:55;;;;;;;2.10;0.80;;;;;;;;;;5017483;28;20304;-75
2021/10/02 13:17:23;;;;;;;3.17;1.03;;;;;;;;;;5015970;28;20211;-75
2021/10/02 13:19:50;;;;;;;3.20;0.90;;;;;;;;;;5017386;28;20227;-74
2021/10/02 13:22:18;;;;;;;1.97;1.00;;;;;;;;;;5019622;28;20287;-75
2021/10/02 13:25:04;;;;;;;1.77;0.83;;;;;;;;;;5010100;28;20846;-76
2021/10/02 13:27:31;;;;;;;9.23;2.50;;;;;;;;;;5017688;28;20658;-76
2021/10/02 13:30:04;;;;;;;2.93;1.27;;;;;;;;;;5017082;28;20314;-75
2021/10/02 13:32:31;;;;;;;3.83;1.00;;;;;;;;;;5013991;28;20707;-74
2021/10/02 13:35:04;;;;;;;2.70;1.00;;;;;;;;;;5017146;28;20287;-76
2021/10/02 13:37:32;;;;;;;4.97;1.30;;;;;;;;;;5015281;28;20298;-75
2021/10/02 13:40:02;;;;;;;2.80;1.07;;;;;;;;;;5016048;28;20234;-76
2021/10/02 13:42:30;;;;;;;2.20;0.77;;;;;;;;;;5014751;28;20197;-76
2021/10/02 13:44:58;;;;;;;4.77;1.00;;;;;;;;;;5017183;28;20196;-76
2021/10/02 13:47:27;;;;;;;1.50;0.90;;;;;;;;;;5016499;28;20734;-76
2021/10/02 13:49:55;;;;;;;2.57;0.90;;;;;;;;;;5009375;28;21957;-76
2021/10/02 13:52:22;;;;;;;2.03;0.80;;;;;;;;;;5018065;28;20216;-76
2021/10/02 13:54:49;;;;;;;2.87;1.00;;;;;;;;;;5018917;28;20720;-75
2021/10/02 13:57:16;;;;;;;2.83;1.10;;;;;;;;;;5014549;28;20293;-75
2021/10/02 13:59:44;;;;;;;1.53;0.90;;;;;;;;;;5014859;28;20243;-77
2021/10/02 14:02:11;;;;;;;5.37;1.07;;;;;;;;;;5016965;28;20260;-74
2021/10/02 14:04:40;;;;;;;2.77;0.90;;;;;;;;;;5015002;28;20205;-75
2021/10/02 14:07:07;;;;;;;1.53;0.80;;;;;;;;;;5017112;28;20239;-76
2021/10/02 14:09:35;;;;;;;7.00;1.10;;;;;;;;;;5010898;28;20595;-75
2021/10/02 14:12:02;;;;;;;4.30;0.90;;;;;;;;;;5007184;28;20809;-75
2021/10/02 14:14:30;;;;;;;1.63;0.90;;;;;;;;;;5005211;28;20212;-75
2021/10/02 14:16:57;;;;;;;2.50;1.20;;;;;;;;;;5036786;22;20230;-80
2021/10/02 14:19:24;;;;;;;5.47;0.97;;;;;;;;;;5050816;28;20232;-78
2021/10/02 14:21:53;;;;;;;1.90;1.00;;;;;;;;;;5058098;28;20284;-79
2021/10/02 14:24:20;;;;;;;2.00;1.00;;;;;;;;;;5046311;28;20697;-78
2021/10/02 14:26:47;;;;;;;4.80;1.37;;;;;;;;;;5047252;28;20195;-78
2021/10/02 14:29:14;;;;;;;3.33;1.03;;;;;;;;;;5053303;28;20305;-78
2021/10/02 14:31:42;;;;;;;4.70;1.33;;;;;;;;;;5045590;28;20226;-77
2021/10/02 14:34:09;;;;;;;2.43;1.30;;;;;;;;;;5047006;28;20725;-77
2021/10/02 14:36:38;;;;;;;2.70;1.47;;;;;;;;;;5045027;28;20293;-77
2021/10/02 14:39:07;;;;;;;2.33;1.07;;;;;;;;;;5047147;28;20206;-80
2021/10/02 14:41:35;;;;;;;3.30;1.50;;;;;;;;;;5056183;28;20208;-78
2021/10/02 14:44:02;;;;;;;2.33;0.87;;;;;;;;;;5048769;28;20277;-78
2021/10/02 14:46:29;;;;;;;2.10;1.00;;;;;;;;;;5052823;28;20202;-79
2021/10/02 14:48:56;;;;;;;1.40;0.73;;;;;;;;;;5046963;28;20202;-78
2021/10/02 14:51:24;;;;;;;5.07;1.83;;;;;;;;;;5049120;28;20309;-77
2021/10/02 14:53:51;;;;;;;4.13;1.10;;;;;;;;;;5058689;28;20387;-78
2021/10/02 14:56:20;;;;;;;7.63;1.50;;;;;;;;;;5056862;28;20243;-76
2021/10/02 14:58:48;;;;;;;3.23;1.33;;;;;;;;;;5051262;28;20235;-76
2021/10/02 15:01:15;;;;;;;4.33;2.73;;;;;;;;;;5054608;28;20302;-76
2021/10/02 15:03:43;;;;;;;3.77;0.90;;;;;;;;;;5052956;28;20203;-76
2021/10/02 15:06:11;;;;;;;2.53;1.17;;;;;;;;;;5057101;28;20341;-77
2021/10/02 15:08:39;;;;;;;2.73;1.40;;;;;;;;;;5052682;28;20744;-77
2021/10/02 15:11:07;;;;;;;2.03;0.90;;;;;;;;;;5057577;28;20768;-77
2021/10/02 15:13:36;;;;;;;3.10;1.00;;;;;;;;;;5061647;28;20213;-77
2021/10/02 15:16:03;;;;;;;2.03;1.00;;;;;;;;;;5063738;28;20242;-76
2021/10/02 15:18:32;;;;;;;2.07;1.00;;;;;;;;;;5057917;28;20816;-76
2021/10/02 15:21:01;;;;;;;3.17;1.17;;;;;;;;;;5052009;28;20854;-77
2021/10/02 15:23:31;;;;;;;2.07;1.00;;;;;;;;;;5054553;28;20458;-76
2021/10/02 15:26:02;;;;;;;2.33;1.17;;;;;;;;;;5058357;28;20242;-77
2021/10/02 15:28:29;;;;;;;2.07;1.20;;;;;;;;;;5055412;28;20285;-77
2021/10/02 15:30:57;;;;;;;4.10;1.00;;;;;;;;;;5050391;28;20230;-76
2021/10/02 15:33:26;;;;;;;2.47;1.00;;;;;;;;;;5049406;28;20294;-76
2021/10/02 15:35:53;;;;;;;3.37;1.33;;;;;;;;;;5055343;28;20282;-78
2021/10/02 15:38:20;;;;;;;3.23;1.20;;;;;;;;;;5058527;28;20285;-77
2021/10/02 15:40:48;;;;;;;1.93;1.17;;;;;;;;;;5055480;28;20781;-79
2021/10/02 15:43:17;;;;;;;1.50;0.90;;;;;;;;;;5055360;28;20668;-77